Time;durP1;ratioP1;P1;durP2;ratioP2;P2;SDS_P1;SDS_P2;PMS_P1;PMS_P2;Temp;Humidity;BMP_temperature;BMP_pressure;BME280_temperature;BME280_humidity;BME280_pressure;Samples;Min_cycle;Max_cycle;Signal;HPM_P1;HPM_P2
2023/06/25 00:00:14;;;;;;;8.93;6.70;;;;;;;20.71;91.86;100143.88;1768878;80;21070;-71
2023/06/25 00:02:49;;;;;;;8.63;6.65;;;;;;;20.73;91.64;100147.23;1764962;81;21081;-69
2023/06/25 00:05:20;;;;;;;13.70;6.70;;;;;;;20.75;91.53;100154.77;1767452;80;21038;-69
2023/06/25 00:07:49;;;;;;;7.62;6.15;;;;;;;20.75;91.14;100153.38;1767709;81;21069;-69
2023/06/25 00:10:19;;;;;;;9.65;6.53;;;;;;;20.74;90.89;100156.70;1735237;81;21519;-64
2023/06/25 00:12:49;;;;;;;10.82;7.30;;;;;;;20.74;90.63;100162.27;1767720;81;21037;-67
2023/06/25 00:15:18;;;;;;;11.38;7.37;;;;;;;20.71;90.76;100161.98;1767617;81;21066;-67
2023/06/25 00:17:48;;;;;;;12.98;8.20;;;;;;;20.66;90.99;100168.36;1767799;81;21022;-67
2023/06/25 00:20:17;;;;;;;14.83;8.43;;;;;;;20.58;91.30;100169.71;1767716;81;21030;-66
2023/06/25 00:22:46;;;;;;;12.28;8.18;;;;;;;20.51;92.17;100173.28;1767623;80;21046;-67
2023/06/25 00:25:17;;;;;;;12.75;8.25;;;;;;;20.46;92.98;100173.80;1764205;81;20982;-68
2023/06/25 00:27:49;;;;;;;11.83;8.38;;;;;;;20.32;94.22;100172.02;1767716;81;20986;-66
2023/06/25 00:30:20;;;;;;;10.98;8.60;;;;;;;20.15;95.65;100167.13;1735238;81;21054;-65
2023/06/25 00:32:54;;;;;;;10.85;8.35;;;;;;;19.99;96.53;100168.11;1768100;81;21010;-64
2023/06/25 00:35:26;;;;;;;10.75;8.75;;;;;;;19.93;97.95;100166.67;1767716;81;21019;-65
2023/06/25 00:38:00;;;;;;;12.60;8.68;;;;;;;19.87;98.63;100162.72;1767986;81;21069;-65
2023/06/25 00:40:30;;;;;;;11.63;8.95;;;;;;;19.79;99.57;100164.59;1767745;81;21483;-65
2023/06/25 00:43:01;;;;;;;10.60;8.15;;;;;;;19.70;100.00;100165.63;1767955;80;21034;-67
2023/06/25 00:45:33;;;;;;;13.15;8.45;;;;;;;19.62;100.00;100166.95;1767727;81;21018;-65
2023/06/25 00:48:05;;;;;;;10.98;8.53;;;;;;;19.53;100.00;100164.36;1767699;81;21073;-66
2023/06/25 00:50:34;;;;;;;10.98;8.43;;;;;;;19.47;100.00;100160.33;1765340;80;21013;-65
2023/06/25 00:53:08;;;;;;;11.60;8.60;;;;;;;19.42;100.00;100160.28;1767705;81;21049;-66
2023/06/25 00:55:36;;;;;;;12.00;8.18;;;;;;;19.37;100.00;100160.23;1768069;80;21080;-66
2023/06/25 00:58:07;;;;;;;11.45;8.55;;;;;;;19.35;100.00;100158.27;1767724;81;21096;-67
2023/06/25 01:00:37;;;;;;;13.60;8.93;;;;;;;19.31;100.00;100156.00;1747863;80;21086;-67
2023/06/25 01:03:26;;;;;;;12.70;9.03;;;;;;;19.32;100.00;100150.73;1783758;80;21106;-67
2023/06/25 01:06:05;;;;;;;11.80;8.58;;;;;;;19.33;100.00;100149.64;1783434;80;20999;-66
2023/06/25 01:08:37;;;;;;;11.25;8.98;;;;;;;19.32;100.00;100145.18;1782574;80;21430;-66
2023/06/25 01:11:10;;;;;;;11.78;8.75;;;;;;;19.30;100.00;100142.37;1783570;80;21140;-66
2023/06/25 01:13:38;;;;;;;11.53;8.58;;;;;;;19.30;100.00;100141.83;1783634;80;21034;-68
2023/06/25 01:16:07;;;;;;;11.10;9.13;;;;;;;19.28;100.00;100130.69;1783904;80;21234;-67
2023/06/25 01:18:39;;;;;;;9.85;7.90;;;;;;;19.22;100.00;100124.23;1783862;80;21148;-68
2023/06/25 01:21:10;;;;;;;10.38;8.50;;;;;;;19.16;100.00;100121.11;1782032;80;21070;-67
2023/06/25 01:23:39;;;;;;;13.90;8.85;;;;;;;19.13;100.00;100110.53;1748942;80;21046;-68
2023/06/25 01:26:08;;;;;;;11.93;8.85;;;;;;;19.14;100.00;100095.54;1783879;80;21027;-70
2023/06/25 01:28:38;;;;;;;12.88;9.23;;;;;;;19.12;100.00;100100.52;1758129;80;21058;-69
2023/06/25 01:31:07;;;;;;;11.18;8.80;;;;;;;19.10;100.00;100090.77;1783609;80;21026;-69
2023/06/25 01:33:38;;;;;;;11.73;8.60;;;;;;;19.12;100.00;100092.19;1748717;80;21498;-69
2023/06/25 01:36:08;;;;;;;11.43;8.70;;;;;;;19.13;100.00;100091.09;1783754;80;21023;-69
2023/06/25 01:38:38;;;;;;;9.90;8.25;;;;;;;19.13;100.00;100087.47;1783810;80;20998;-68
2023/06/25 01:41:06;;;;;;;10.82;8.33;;;;;;;19.14;100.00;100080.81;1757776;80;20999;-68
2023/06/25 01:43:36;;;;;;;10.90;8.18;;;;;;;19.12;100.00;100085.24;1783810;80;21098;-69
2023/06/25 01:46:05;;;;;;;10.53;8.38;;;;;;;19.12;100.00;100084.41;1783752;80;21078;-70
2023/06/25 01:48:35;;;;;;;10.78;8.60;;;;;;;19.12;100.00;100086.63;1783695;80;21058;-70
2023/06/25 01:51:05;;;;;;;10.80;8.85;;;;;;;19.10;100.00;100092.16;1783724;80;21070;-68
2023/06/25 01:53:43;;;;;;;10.63;8.85;;;;;;;19.02;100.00;100089.30;1784385;80;21002;-68
2023/06/25 01:56:12;;;;;;;;;;;;;;;18.99;100.00;100096.77;1788773;80;21440;-70
2023/06/25 01:58:40;;;;;;;12.28;9.35;;;;;;;18.97;100.00;100092.86;1786021;80;20466;-67
2023/06/25 02:01:09;;;;;;;12.37;9.83;;;;;;;18.95;100.00;100092.83;1786007;80;21454;-69
2023/06/25 02:03:39;;;;;;;11.12;9.20;;;;;;;18.95;100.00;100096.45;1784823;80;21082;-69
2023/06/25 02:06:09;;;;;;;11.63;8.90;;;;;;;18.98;100.00;100096.47;1784445;80;21026;-71
2023/06/25 02:08:39;;;;;;;10.63;9.30;;;;;;;18.98;100.00;100095.92;1784296;80;21062;-69
2023/06/25 02:11:08;;;;;;;10.63;9.08;;;;;;;18.98;100.00;100097.86;1783835;80;21051;-70
2023/06/25 02:13:39;;;;;;;14.95;9.18;;;;;;;18.99;100.00;100105.94;1783994;80;21098;-70
2023/06/25 02:16:08;;;;;;;13.45;9.83;;;;;;;19.06;100.00;100109.05;1783630;80;21034;-71
2023/06/25 02:18:37;;;;;;;13.22;9.45;;;;;;;19.09;100.00;100103.82;1783606;80;21018;-70
2023/06/25 02:21:07;;;;;;;10.72;8.50;;;;;;;19.11;100.00;100103.56;1783614;80;21054;-70
2023/06/25 02:23:36;;;;;;;12.55;9.85;;;;;;;19.11;100.00;100105.78;1783760;80;21027;-70
2023/06/25 02:26:07;;;;;;;11.03;8.70;;;;;;;19.08;100.00;100105.47;1783565;80;21062;-70
2023/06/25 02:28:38;;;;;;;11.70;9.08;;;;;;;19.08;100.00;100097.97;1783726;80;21019;-71
2023/06/25 02:31:06;;;;;;;12.65;9.15;;;;;;;19.06;100.00;100093.23;1783540;80;21038;-72
2023/06/25 02:33:36;;;;;;;17.35;9.13;;;;;;;19.02;100.00;100097.63;1783580;80;21038;-71
2023/06/25 02:36:05;;;;;;;13.78;9.50;;;;;;;19.02;100.00;100092.63;1783715;80;21069;-71
2023/06/25 02:38:33;;;;;;;12.13;9.95;;;;;;;18.99;100.00;100091.20;1783578;80;21035;-70
2023/06/25 02:41:03;;;;;;;13.35;9.20;;;;;;;18.98;100.00;100085.37;1783648;80;21019;-70
2023/06/25 02:43:33;;;;;;;11.33;9.40;;;;;;;19.03;100.00;100083.20;1783712;80;21034;-69
2023/06/25 02:46:02;;;;;;;11.80;9.53;;;;;;;19.06;100.00;100081.28;1748141;80;21006;-66
2023/06/25 02:48:32;;;;;;;10.95;8.68;;;;;;;19.08;100.00;100078.53;1783496;80;21111;-67
2023/06/25 02:51:01;;;;;;;12.73;9.63;;;;;;;19.10;100.00;100079.11;1783712;80;21078;-67
2023/06/25 02:53:30;;;;;;;12.28;9.10;;;;;;;19.12;100.00;100083.02;1783638;80;21089;-70
2023/06/25 02:56:00;;;;;;;11.03;9.28;;;;;;;19.11;100.00;100075.23;1783899;80;21062;-68
2023/06/25 02:58:29;;;;;;;14.73;11.15;;;;;;;19.07;100.00;100078.25;1783617;80;20995;-70
2023/06/25 03:00:58;;;;;;;14.18;10.80;;;;;;;19.08;100.00;100070.20;1770832;79;21053;-69
2023/06/25 03:03:27;;;;;;;14.00;10.40;;;;;;;19.13;100.00;100068.87;1767606;81;21026;-69
2023/06/25 03:05:56;;;;;;;11.75;9.50;;;;;;;19.18;100.00;100077.25;1767859;81;21081;-66
2023/06/25 03:08:27;;;;;;;13.43;9.80;;;;;;;19.18;100.00;100078.64;1767855;81;21046;-66
2023/06/25 03:10:56;;;;;;;12.70;9.90;;;;;;;19.13;100.00;100081.36;1767909;81;21069;-65
2023/06/25 03:13:25;;;;;;;14.15;9.90;;;;;;;19.12;100.00;100086.63;1767716;81;21045;-63
2023/06/25 03:15:54;;;;;;;13.38;9.50;;;;;;;19.14;100.00;100084.44;1767756;81;21038;-67
2023/06/25 03:18:23;;;;;;;13.40;9.43;;;;;;;19.12;100.00;100078.30;1767535;80;21501;-66
2023/06/25 03:20:53;;;;;;;11.95;8.95;;;;;;;19.10;100.00;100072.17;1767653;81;21049;-65
2023/06/25 03:23:23;;;;;;;12.78;9.13;;;;;;;19.08;100.00;100072.98;1767759;81;21033;-66
2023/06/25 03:25:54;;;;;;;12.50;9.48;;;;;;;19.04;100.00;100070.44;1675020;85;21082;-66
2023/06/25 03:28:28;;;;;;;18.67;14.30;;;;;;;19.01;100.00;100069.57;1674940;84;21109;-66
2023/06/25 03:30:57;;;;;;;17.67;13.53;;;;;;;19.01;100.00;100062.62;1652431;86;21090;-68
2023/06/25 03:33:26;;;;;;;21.10;14.15;;;;;;;19.03;100.00;100063.20;1675161;86;21597;-69
2023/06/25 03:35:57;;;;;;;14.93;11.18;;;;;;;19.05;100.00;100061.56;1674859;86;21085;-69
2023/06/25 03:38:26;;;;;;;15.93;12.37;;;;;;;19.02;100.00;100068.47;1652284;86;21062;-69
2023/06/25 03:40:55;;;;;;;15.83;13.53;;;;;;;18.98;100.00;100059.83;1674731;84;21509;-69
2023/06/25 03:43:24;;;;;;;18.67;13.03;;;;;;;18.99;100.00;100055.95;1675626;81;21054;-69
2023/06/25 03:45:53;;;;;;;17.95;13.80;;;;;;;19.03;100.00;100056.27;1767892;81;21029;-70
2023/06/25 03:48:22;;;;;;;22.73;15.50;;;;;;;19.05;100.00;100051.84;1734981;81;21084;-69
2023/06/25 03:50:52;;;;;;;19.75;13.80;;;;;;;19.08;100.00;100053.55;1767731;81;21093;-71
2023/06/25 03:53:21;;;;;;;19.27;14.38;;;;;;;19.13;100.00;100053.59;1767690;81;21473;-70
2023/06/25 03:55:49;;;;;;;20.15;14.23;;;;;;;19.15;100.00;100054.17;1767682;81;21037;-70
2023/06/25 03:58:20;;;;;;;19.20;13.22;;;;;;;19.15;100.00;100050.00;1767562;81;21065;-70
2023/06/25 04:00:49;;;;;;;19.67;15.40;;;;;;;19.14;100.00;100056.66;1767741;79;21085;-72
2023/06/25 04:03:18;;;;;;;23.55;15.25;;;;;;;19.10;100.00;100065.77;1767701;80;20990;-71
2023/06/25 04:05:48;;;;;;;19.42;15.00;;;;;;;19.07;100.00;100058.81;1767969;81;21014;-69
2023/06/25 04:08:17;;;;;;;23.67;17.32;;;;;;;19.07;100.00;100057.42;1767671;81;21025;-68
2023/06/25 04:10:48;;;;;;;20.50;15.05;;;;;;;19.09;100.00;100063.55;1767944;81;21037;-70
2023/06/25 04:13:16;;;;;;;22.07;16.60;;;;;;;19.11;100.00;100060.51;1768015;81;21037;-71
2023/06/25 04:15:45;;;;;;;22.35;15.15;;;;;;;19.12;100.00;100053.85;1767932;81;21445;-70
2023/06/25 04:18:14;;;;;;;21.80;14.95;;;;;;;19.17;100.00;100059.46;1767716;81;21481;-69
2023/06/25 04:20:43;;;;;;;19.52;15.23;;;;;;;19.19;100.00;100060.87;1767964;81;21073;-72
2023/06/25 04:23:12;;;;;;;20.62;15.68;;;;;;;19.22;100.00;100053.95;1765055;81;21006;-70
2023/06/25 04:25:43;;;;;;;19.15;14.65;;;;;;;19.28;100.00;100054.29;1767738;81;21069;-70
2023/06/25 04:28:16;;;;;;;17.15;13.65;;;;;;;19.36;100.00;100054.36;1767692;81;21053;-69
2023/06/25 04:30:45;;;;;;;19.50;13.93;;;;;;;19.43;100.00;100059.15;1767727;80;21033;-70
2023/06/25 04:33:14;;;;;;;19.05;13.45;;;;;;;19.52;100.00;100060.37;1767717;81;21519;-71
2023/06/25 04:35:45;;;;;;;21.35;15.40;;;;;;;19.59;100.00;100059.08;1767739;81;21449;-71
2023/06/25 04:38:15;;;;;;;22.27;16.65;;;;;;;19.64;100.00;100055.50;1767876;81;21514;-71
2023/06/25 04:40:44;;;;;;;24.85;16.45;;;;;;;19.71;100.00;100060.28;1767974;81;21014;-72
2023/06/25 04:43:13;;;;;;;20.48;15.80;;;;;;;19.78;100.00;100051.16;1735313;80;21045;-71
2023/06/25 04:45:42;;;;;;;19.10;15.32;;;;;;;19.83;100.00;100049.80;1767947;81;21069;-70
2023/06/25 04:48:11;;;;;;;22.25;15.20;;;;;;;19.88;100.00;100044.83;1767765;81;21022;-70
2023/06/25 04:50:41;;;;;;;20.82;14.78;;;;;;;19.92;100.00;100055.70;1768069;81;21057;-71
2023/06/25 04:53:10;;;;;;;21.05;14.93;;;;;;;19.97;100.00;100050.73;1767990;81;21080;-71
2023/06/25 04:55:38;;;;;;;14.75;11.70;;;;;;;20.02;100.00;100048.81;1767716;81;21014;-72
2023/06/25 04:58:08;;;;;;;15.05;11.57;;;;;;;20.08;100.00;100044.13;1768015;81;21495;-70
2023/06/25 05:00:37;;;;;;;17.50;13.50;;;;;;;20.13;100.00;100040.82;1767889;80;21096;-70
2023/06/25 05:03:06;;;;;;;19.92;13.55;;;;;;;20.23;100.00;100045.63;1767907;81;21037;-70
2023/06/25 05:05:35;;;;;;;19.75;14.18;;;;;;;20.34;100.00;100043.73;1767950;81;21006;-71
2023/06/25 05:08:06;;;;;;;23.05;14.73;;;;;;;20.44;100.00;100046.60;1767901;81;21026;-70
2023/06/25 05:10:35;;;;;;;21.40;14.70;;;;;;;20.54;100.00;100048.88;1768103;81;21022;-69
2023/06/25 05:13:05;;;;;;;21.62;15.43;;;;;;;20.63;100.00;100046.96;1767779;81;21485;-71
2023/06/25 05:15:35;;;;;;;20.37;14.15;;;;;;;20.69;99.56;100040.30;1767698;81;21058;-71
2023/06/25 05:18:05;;;;;;;24.27;14.80;;;;;;;20.76;99.26;100042.27;1767885;81;21029;-70
2023/06/25 05:20:38;;;;;;;21.42;14.18;;;;;;;20.80;98.96;100043.39;1764994;81;21077;-69
2023/06/25 05:23:09;;;;;;;21.75;14.05;;;;;;;20.83;99.39;100040.09;1768034;81;21014;-72
2023/06/25 05:25:38;;;;;;;20.48;13.35;;;;;;;20.85;99.39;100040.66;1767926;81;21105;-71
2023/06/25 05:28:07;;;;;;;21.45;13.72;;;;;;;20.87;99.16;100041.22;1768116;81;21093;-72
2023/06/25 05:30:36;;;;;;;20.32;14.58;;;;;;;20.88;98.71;100038.16;1770208;81;21049;-72
2023/06/25 05:33:05;;;;;;;18.67;12.80;;;;;;;20.90;98.46;100036.49;1767557;80;21022;-71
2023/06/25 05:35:35;;;;;;;19.27;13.43;;;;;;;20.96;98.69;100040.13;1769891;81;21073;-73
2023/06/25 05:38:04;;;;;;;18.05;12.10;;;;;;;21.04;98.70;100046.00;1768964;81;21037;-72
2023/06/25 05:40:34;;;;;;;18.95;12.28;;;;;;;21.12;98.45;100037.09;1768127;81;21022;-72
2023/06/25 05:43:03;;;;;;;19.60;12.50;;;;;;;21.19;97.51;100042.40;1767841;80;21035;-73
2023/06/25 05:45:32;;;;;;;16.87;11.75;;;;;;;21.23;97.28;100040.77;1768053;81;21142;-72
2023/06/25 05:48:03;;;;;;;14.73;11.43;;;;;;;21.27;96.72;100039.09;1767769;81;21053;-72
2023/06/25 05:50:31;;;;;;;15.93;11.90;;;;;;;21.31;96.09;100041.61;1767778;81;21025;-70
2023/06/25 05:53:01;;;;;;;17.50;11.40;;;;;;;21.34;95.19;100036.04;1767893;81;21127;-72
2023/06/25 05:55:30;;;;;;;16.35;10.78;;;;;;;21.36;94.33;100035.20;1767958;81;21018;-72
2023/06/25 05:57:58;;;;;;;16.48;10.95;;;;;;;21.40;93.68;100033.53;1767724;81;21026;-73
2023/06/25 06:00:27;;;;;;;15.43;10.93;;;;;;;21.41;92.89;100040.22;1767759;80;21164;-73
2023/06/25 06:02:56;;;;;;;18.60;12.35;;;;;;;21.42;93.10;100036.32;1767762;81;21422;-72
2023/06/25 06:05:25;;;;;;;17.57;10.68;;;;;;;21.51;93.61;100038.03;1767976;81;21062;-73
2023/06/25 06:07:54;;;;;;;12.47;10.03;;;;;;;21.61;93.69;100037.19;1767941;81;21028;-73
2023/06/25 06:10:22;;;;;;;15.55;10.28;;;;;;;21.73;93.30;100042.75;1767632;80;21045;-72
2023/06/25 06:12:51;;;;;;;14.00;10.28;;;;;;;21.92;92.78;100037.98;1767713;81;21493;-73
2023/06/25 06:15:21;;;;;;;11.53;9.25;;;;;;;22.17;92.44;100049.16;1768040;81;21038;-72
2023/06/25 06:17:51;;;;;;;14.73;10.35;;;;;;;22.45;90.45;100044.33;1767873;81;21057;-72
2023/06/25 06:20:20;;;;;;;11.33;9.18;;;;;;;22.72;88.71;100046.72;1767886;81;21077;-71
2023/06/25 06:22:49;;;;;;;12.28;9.78;;;;;;;23.01;85.37;100044.67;1767825;81;21021;-74
2023/06/25 06:25:18;;;;;;;12.15;9.45;;;;;;;23.23;82.75;100042.85;1767879;81;21026;-73
2023/06/25 06:27:47;;;;;;;11.73;9.63;;;;;;;23.43;80.42;100035.75;1767883;81;21097;-72
2023/06/25 06:30:16;;;;;;;13.03;9.55;;;;;;;23.59;79.67;100034.52;1767496;81;21014;-71
2023/06/25 06:32:46;;;;;;;11.20;8.20;;;;;;;23.87;79.50;100041.83;1767660;80;21069;-72
2023/06/25 06:35:15;;;;;;;13.70;8.30;;;;;;;24.14;77.23;100039.33;1767619;81;21029;-71
2023/06/25 06:37:45;;;;;;;9.48;7.40;;;;;;;24.30;67.88;100042.83;1767703;81;21014;-72
2023/06/25 06:40:14;;;;;;;9.28;7.30;;;;;;;24.33;67.66;100047.27;1767446;80;21061;-73
2023/06/25 06:42:43;;;;;;;11.15;8.00;;;;;;;24.43;69.29;100047.72;1767905;81;21033;-73
2023/06/25 06:45:12;;;;;;;10.45;8.40;;;;;;;24.61;69.69;100050.30;1735235;81;21029;-73
2023/06/25 06:47:44;;;;;;;9.68;7.80;;;;;;;24.73;68.87;100040.09;1767731;81;20990;-72
2023/06/25 06:50:13;;;;;;;10.68;7.97;;;;;;;24.75;68.52;100035.86;1767705;80;21049;-74
2023/06/25 06:52:43;;;;;;;11.22;8.13;;;;;;;24.75;67.87;100041.46;1767433;81;21025;-72
2023/06/25 06:55:13;;;;;;;9.45;7.42;;;;;;;24.75;67.27;100045.66;1767544;81;21033;-73
2023/06/25 06:57:43;;;;;;;8.85;7.37;;;;;;;24.68;67.75;100043.77;1767802;81;21507;-74
2023/06/25 07:00:15;;;;;;;9.80;7.55;;;;;;;24.68;67.96;100043.77;1767489;81;21021;-74
2023/06/25 07:02:46;;;;;;;10.58;7.42;;;;;;;24.67;67.46;100033.69;1767558;79;21104;-74
2023/06/25 07:05:16;;;;;;;14.83;7.72;;;;;;;24.65;66.77;100027.55;1767805;81;21512;-73
2023/06/25 07:07:45;;;;;;;11.40;7.33;;;;;;;24.61;67.01;100039.09;1767735;81;21057;-75
2023/06/25 07:10:14;;;;;;;13.95;7.08;;;;;;;24.56;66.17;100036.36;1767568;81;21045;-74
2023/06/25 07:12:44;;;;;;;9.78;7.08;;;;;;;24.51;65.67;100023.81;1767947;81;21041;-74
2023/06/25 07:15:13;;;;;;;8.78;6.78;;;;;;;24.47;64.44;100028.34;1767794;81;21013;-72
2023/06/25 07:17:44;;;;;;;9.55;6.65;;;;;;;24.51;64.41;100026.62;1765004;80;21089;-75
2023/06/25 07:20:13;;;;;;;8.28;6.87;;;;;;;24.61;64.47;100027.89;1767427;81;21114;-73
2023/06/25 07:22:43;;;;;;;9.35;6.58;;;;;;;24.69;63.72;100026.39;1767933;80;21073;-72
2023/06/25 07:25:13;;;;;;;11.95;7.30;;;;;;;24.81;63.28;100023.45;1767743;80;20994;-73
2023/06/25 07:27:41;;;;;;;11.43;6.97;;;;;;;24.91;62.70;100023.87;1767830;81;21042;-74
2023/06/25 07:30:13;;;;;;;8.98;6.35;;;;;;;24.99;61.41;100026.02;1767355;81;21089;-73
2023/06/25 07:32:43;;;;;;;11.43;6.75;;;;;;;25.01;61.41;100032.73;1767773;81;21010;-73
2023/06/25 07:35:12;;;;;;;8.13;6.55;;;;;;;25.03;60.07;100032.69;1767619;81;21069;-74
2023/06/25 07:37:41;;;;;;;7.65;6.22;;;;;;;25.05;60.03;100028.19;1767936;81;21017;-75
2023/06/25 07:40:11;;;;;;;7.55;6.17;;;;;;;25.13;60.08;100034.52;1767813;81;21049;-73
2023/06/25 07:42:39;;;;;;;9.00;6.30;;;;;;;25.25;57.43;100030.68;1740350;81;21547;-73
2023/06/25 07:45:11;;;;;;;8.30;6.45;;;;;;;25.33;57.41;100031.96;1767704;81;21017;-74
2023/06/25 07:47:41;;;;;;;7.80;6.15;;;;;;;25.39;56.67;100030.77;1767653;81;21061;-75
2023/06/25 07:50:10;;;;;;;7.72;6.40;;;;;;;25.43;55.92;100032.66;1767825;81;21061;-73
2023/06/25 07:52:39;;;;;;;9.30;6.83;;;;;;;25.45;55.92;100030.95;1767788;81;21065;-74
2023/06/25 07:55:08;;;;;;;11.20;6.55;;;;;;;25.46;55.40;100037.66;1767719;81;21112;-75
2023/06/25 07:57:37;;;;;;;7.70;6.42;;;;;;;25.41;56.22;100034.94;1767871;81;20994;-74
2023/06/25 08:00:07;;;;;;;11.90;7.20;;;;;;;25.39;56.44;100033.02;1767639;81;21010;-72
2023/06/25 08:02:39;;;;;;;8.10;6.28;;;;;;;25.38;56.94;100025.73;1764050;80;21049;-73
2023/06/25 08:05:09;;;;;;;9.38;6.90;;;;;;;25.32;54.64;100024.69;1767630;81;21017;-74
2023/06/25 08:07:39;;;;;;;7.92;6.53;;;;;;;25.35;54.86;100026.31;1767757;81;21057;-73
2023/06/25 08:10:08;;;;;;;11.20;7.30;;;;;;;25.41;55.34;100023.72;1767574;81;21046;-73
2023/06/25 08:12:37;;;;;;;8.10;6.78;;;;;;;25.49;54.52;100014.61;1724454;80;21486;-71
2023/06/25 08:15:09;;;;;;;9.75;6.78;;;;;;;25.49;55.34;100018.81;1710741;84;21080;-73
2023/06/25 08:17:39;;;;;;;8.53;6.83;;;;;;;25.49;55.34;100018.81;1729255;82;21198;-68
2023/06/25 08:20:10;;;;;;;9.28;7.40;;;;;;;25.56;54.60;100016.45;1729164;82;21006;-73
2023/06/25 08:22:39;;;;;;;8.08;6.37;;;;;;;25.54;54.38;100017.33;1729323;82;21030;-75
2023/06/25 08:25:20;;;;;;;8.98;6.87;;;;;;;25.46;55.10;100018.03;1729218;83;21069;-75
2023/06/25 08:27:49;;;;;;;9.75;7.30;;;;;;;25.44;54.75;100013.29;1750791;80;21023;-75
2023/06/25 08:30:19;;;;;;;7.92;6.45;;;;;;;25.46;54.42;100018.59;1765288;81;21497;-71
2023/06/25 08:32:49;;;;;;;11.05;5.10;;;;;;;25.45;54.73;100014.95;1767731;81;21539;-71
2023/06/25 08:35:18;;;;;;;6.42;5.00;;;;;;;25.51;53.57;100022.15;1761916;81;21009;-73
2023/06/25 08:37:48;;;;;;;7.80;4.97;;;;;;;25.54;50.28;100021.54;1761554;81;21081;-72
2023/06/25 08:40:19;;;;;;;8.10;5.78;;;;;;;25.52;50.46;100028.02;1761747;81;20989;-73
2023/06/25 08:42:49;;;;;;;6.90;5.47;;;;;;;25.52;50.71;100021.01;1733412;81;21038;-72
2023/06/25 08:45:19;;;;;;;10.30;8.43;;;;;;;25.51;50.73;100020.75;1679987;83;21163;-72
2023/06/25 08:47:55;;;;;;;10.58;6.15;;;;;;;25.49;50.27;100019.38;1757775;80;21441;-70
2023/06/25 08:50:28;;;;;;;6.67;5.20;;;;;;;25.45;49.71;100019.16;1732873;81;21482;-69
2023/06/25 08:52:58;;;;;;;6.42;5.37;;;;;;;25.40;49.24;100025.42;1757615;81;21089;-70
2023/06/25 08:55:28;;;;;;;7.10;5.20;;;;;;;25.35;49.00;100020.70;1757811;81;21049;-66
2023/06/25 08:57:57;;;;;;;6.37;4.90;;;;;;;25.31;48.91;100026.66;1757869;81;21081;-67
2023/06/25 09:00:27;;;;;;;7.08;5.28;;;;;;;25.25;49.03;100016.66;1758557;80;21065;-67
2023/06/25 09:02:56;;;;;;;8.33;5.70;;;;;;;25.19;49.34;100017.88;1765658;80;21022;-70
2023/06/25 09:05:30;;;;;;;6.80;5.83;;;;;;;25.15;49.93;100019.62;1751490;82;21056;-69
2023/06/25 09:08:00;;;;;;;10.43;5.72;;;;;;;25.12;50.39;100016.86;1728648;82;21067;-66
2023/06/25 09:10:31;;;;;;;7.78;5.45;;;;;;;25.04;51.85;100009.70;1726993;82;21020;-67
2023/06/25 09:13:01;;;;;;;6.50;5.45;;;;;;;24.98;52.17;100015.11;1726181;82;21065;-67
2023/06/25 09:15:32;;;;;;;7.30;5.47;;;;;;;24.94;51.75;100022.70;1733727;82;21064;-68
2023/06/25 09:18:02;;;;;;;7.75;5.83;;;;;;;24.90;51.46;100017.99;1726400;82;21068;-67
2023/06/25 09:20:31;;;;;;;7.92;5.87;;;;;;;24.84;52.47;100012.20;1709808;83;21506;-68
2023/06/25 09:23:04;;;;;;;6.67;5.62;;;;;;;24.80;53.30;100013.94;1733718;81;21079;-68
2023/06/25 09:25:34;;;;;;;8.83;6.22;;;;;;;24.77;52.94;100011.17;1709743;83;21468;-67
2023/06/25 09:28:05;;;;;;;7.40;5.53;;;;;;;24.75;53.43;100014.84;1726418;82;21103;-68
2023/06/25 09:30:35;;;;;;;7.50;5.33;;;;;;;24.74;52.53;100010.37;1726336;82;21028;-67
2023/06/25 09:33:05;;;;;;;8.85;5.95;;;;;;;24.73;53.01;100012.91;1733906;82;21047;-68
2023/06/25 09:35:35;;;;;;;7.92;6.05;;;;;;;24.73;52.96;100010.67;1740823;82;21451;-67
2023/06/25 09:38:05;;;;;;;6.25;5.50;;;;;;;24.76;53.79;100010.06;1754560;82;21066;-68
2023/06/25 09:40:36;;;;;;;8.18;5.95;;;;;;;24.77;53.80;100005.56;1754519;82;21544;-68
2023/06/25 09:43:06;;;;;;;6.80;5.92;;;;;;;24.83;54.23;100011.93;1754834;82;21062;-68
2023/06/25 09:45:37;;;;;;;6.20;5.60;;;;;;;24.88;53.39;100007.09;1754497;82;21223;-63
2023/06/25 09:48:09;;;;;;;8.33;6.25;;;;;;;24.92;53.08;100004.52;1741948;82;21067;-66
2023/06/25 09:50:39;;;;;;;9.70;6.00;;;;;;;24.95;53.24;100000.53;1727520;82;21039;-66
2023/06/25 09:53:12;;;;;;;9.35;6.90;;;;;;;24.98;53.50;100002.50;1754681;82;21122;-65
2023/06/25 09:55:41;;;;;;;7.87;6.33;;;;;;;24.99;53.29;99994.35;1754325;82;21490;-65
2023/06/25 09:58:12;;;;;;;9.28;6.42;;;;;;;25.06;53.61;99996.20;1754894;82;21188;-65
2023/06/25 10:00:41;;;;;;;8.43;6.65;;;;;;;25.14;53.60;99989.91;1727513;82;21058;-66
2023/06/25 10:03:12;;;;;;;11.68;7.05;;;;;;;25.19;53.43;99993.47;1756791;81;21089;-67
2023/06/25 10:05:42;;;;;;;8.60;7.05;;;;;;;25.24;53.74;99989.75;1732203;81;21107;-66
2023/06/25 10:08:12;;;;;;;10.88;6.65;;;;;;;25.28;52.81;99973.98;1757588;81;21007;-66
2023/06/25 10:10:42;;;;;;;7.42;6.62;;;;;;;25.32;53.33;99974.20;1757725;81;21176;-66
2023/06/25 10:13:13;;;;;;;12.18;7.62;;;;;;;25.37;52.73;99964.33;1669581;86;21133;-67
2023/06/25 10:15:43;;;;;;;8.15;7.12;;;;;;;25.41;52.60;99965.38;1647106;86;21519;-65
2023/06/25 10:18:17;;;;;;;15.43;10.78;;;;;;;25.47;52.99;99962.75;1601265;86;21086;-66
2023/06/25 10:20:46;;;;;;;14.45;10.00;;;;;;;25.51;53.18;99960.43;1647049;86;21050;-67
2023/06/25 10:23:22;;;;;;;11.30;8.75;;;;;;;25.59;53.70;99958.89;1669580;86;21069;-66
2023/06/25 10:25:58;;;;;;;9.98;8.05;;;;;;;25.64;52.97;99961.60;1669288;86;21180;-65
2023/06/25 10:28:36;;;;;;;16.12;9.20;;;;;;;25.67;52.56;99955.97;1669254;86;21051;-66
2023/06/25 10:31:13;;;;;;;10.25;7.40;;;;;;;25.66;52.63;99957.11;1669115;86;21046;-66
2023/06/25 10:33:43;;;;;;;8.08;7.25;;;;;;;25.62;52.64;99954.63;1647240;86;21490;-65
2023/06/25 10:36:13;;;;;;;11.12;7.28;;;;;;;25.59;52.38;99961.70;1670630;86;21165;-65
2023/06/25 10:38:42;;;;;;;9.23;7.58;;;;;;;25.58;52.34;99966.47;1774431;80;21038;-66
2023/06/25 10:41:14;;;;;;;12.33;7.10;;;;;;;25.58;52.45;99959.45;1759108;81;21125;-67
2023/06/25 10:43:44;;;;;;;9.83;6.97;;;;;;;25.58;52.74;99956.66;1758889;81;21457;-67
2023/06/25 10:46:15;;;;;;;10.72;7.42;;;;;;;25.59;52.03;99965.91;1758980;81;21054;-66
2023/06/25 10:48:46;;;;;;;9.30;6.80;;;;;;;25.52;51.86;99968.27;1759328;81;21051;-66
2023/06/25 10:51:15;;;;;;;9.53;6.50;;;;;;;25.46;52.09;99967.53;1759153;81;21077;-66
2023/06/25 10:53:44;;;;;;;9.05;6.33;;;;;;;25.37;51.43;99963.77;1733630;81;21110;-66
2023/06/25 10:56:13;;;;;;;7.30;6.08;;;;;;;25.28;52.22;99971.17;1758932;81;21196;-65
2023/06/25 10:58:44;;;;;;;11.03;7.53;;;;;;;25.20;52.66;99966.27;1759075;81;21077;-66
2023/06/25 11:01:15;;;;;;;14.55;9.08;;;;;;;25.08;57.18;99974.31;1759096;81;21554;-65
2023/06/25 11:03:45;;;;;;;19.02;9.55;;;;;;;24.91;59.92;99974.81;1756448;81;21077;-63
2023/06/25 11:06:15;;;;;;;14.98;9.28;;;;;;;24.77;61.94;99973.91;1666144;86;21121;-62
2023/06/25 11:08:44;;;;;;;16.70;10.00;;;;;;;24.62;64.08;99974.92;1687844;85;21664;-64
2023/06/25 11:11:14;;;;;;;15.23;9.95;;;;;;;24.31;66.15;99979.53;1648937;86;21068;-63
2023/06/25 11:13:48;;;;;;;16.17;9.80;;;;;;;24.05;68.27;99976.70;1663440;84;21169;-63
2023/06/25 11:16:20;;;;;;;13.10;9.18;;;;;;;23.86;70.96;99975.80;1687966;85;21066;-63
2023/06/25 11:18:52;;;;;;;15.65;8.90;;;;;;;23.71;72.26;99975.39;1635176;88;21097;-62
2023/06/25 11:21:21;;;;;;;14.53;9.13;;;;;;;23.53;73.46;99983.92;1663336;84;21058;-63
2023/06/25 11:23:51;;;;;;;12.18;8.53;;;;;;;23.31;75.33;99994.14;1712327;80;21094;-62
2023/06/25 11:26:21;;;;;;;15.28;8.38;;;;;;;23.15;75.56;100009.92;1700295;82;21082;-62